createdAt,value
2023-01-20T00:01:09.827Z,14.33
2023-01-20T00:03:36.848Z,15.17
2023-01-20T00:06:03.596Z,14.37
2023-01-20T00:08:30.160Z,14.50
2023-01-20T00:10:56.966Z,14.20
2023-01-20T00:13:23.619Z,14.00
2023-01-20T00:15:50.151Z,13.47
2023-01-20T00:18:16.829Z,14.03
2023-01-20T00:20:43.949Z,15.03
2023-01-20T00:23:11.003Z,14.70
2023-01-20T00:25:37.642Z,15.87
2023-01-20T00:28:04.990Z,15.80
2023-01-20T00:30:32.373Z,16.60
2023-01-20T00:33:00.335Z,16.47
2023-01-20T00:35:28.463Z,16.13
2023-01-20T00:37:55.585Z,16.63
2023-01-20T00:40:22.504Z,16.30
2023-01-20T00:42:49.325Z,16.40
2023-01-20T00:45:16.133Z,15.77
2023-01-20T00:47:42.632Z,16.33
2023-01-20T00:50:09.804Z,16.83
2023-01-20T00:52:36.437Z,16.33
2023-01-20T00:55:03.045Z,17.03
2023-01-20T00:57:29.503Z,16.60
2023-01-20T00:59:56.069Z,18.07
2023-01-20T01:02:22.526Z,17.63
2023-01-20T01:04:50.729Z,18.13
2023-01-20T01:07:18.560Z,17.73
2023-01-20T01:09:45.453Z,17.50
2023-01-20T01:12:11.944Z,17.97
2023-01-20T01:14:38.325Z,17.87
2023-01-20T01:17:04.799Z,17.57
2023-01-20T01:19:31.239Z,18.63
2023-01-20T01:21:57.753Z,17.93
2023-01-20T01:24:24.212Z,18.53
2023-01-20T01:26:52.945Z,17.57
2023-01-20T01:29:19.389Z,18.10
2023-01-20T01:31:45.873Z,17.57
2023-01-20T01:34:12.354Z,17.87
2023-01-20T01:36:38.905Z,18.93
2023-01-20T01:39:05.325Z,18.90
2023-01-20T01:41:31.967Z,18.37
2023-01-20T01:44:01.385Z,18.23
2023-01-20T01:46:27.906Z,18.40
2023-01-20T01:48:54.771Z,17.33
2023-01-20T01:51:26.047Z,18.43
2023-01-20T01:53:59.925Z,18.73
2023-01-20T01:56:27.567Z,18.47
2023-01-20T01:58:56.892Z,18.73
2023-01-20T02:01:23.635Z,19.27
2023-01-20T02:04:21.892Z,19.43
2023-01-20T02:06:51.273Z,19.33
2023-01-20T02:09:18.592Z,18.73
2023-01-20T02:11:58.102Z,18.70
2023-01-20T02:14:29.611Z,18.50
2023-01-20T02:17:02.140Z,19.50
2023-01-20T02:19:50.899Z,19.23
2023-01-20T02:22:29.948Z,17.77
2023-01-20T02:25:11.038Z,18.17
2023-01-20T02:28:10.247Z,19.43
2023-01-20T02:30:43.345Z,18.90
2023-01-20T02:33:13.581Z,19.57
2023-01-20T02:35:49.996Z,19.50
2023-01-20T02:38:28.024Z,19.30
2023-01-20T02:41:12.889Z,18.43
2023-01-20T02:43:47.169Z,19.63
2023-01-20T02:46:33.182Z,20.33
2023-01-20T02:49:12.734Z,19.77
2023-01-20T02:51:47.814Z,19.00
2023-01-20T02:54:17.076Z,18.97
2023-01-20T02:56:43.898Z,20.27
2023-01-20T02:59:12.459Z,20.07
2023-01-20T03:01:48.704Z,20.33
2023-01-20T03:04:20.073Z,19.43
2023-01-20T03:06:50.020Z,20.63
2023-01-20T03:09:21.804Z,20.40
2023-01-20T03:11:51.716Z,21.43
2023-01-20T03:14:18.242Z,20.43
2023-01-20T03:16:48.175Z,20.83
2023-01-20T03:19:16.426Z,22.30
2023-01-20T03:21:43.525Z,22.60
2023-01-20T03:24:10.715Z,22.13
2023-01-20T03:26:38.315Z,23.83
2023-01-20T03:29:06.952Z,22.47
2023-01-20T03:31:38.459Z,22.33
2023-01-20T03:34:11.079Z,22.33
2023-01-20T03:36:38.320Z,23.27
2023-01-20T03:39:05.213Z,23.73
2023-01-20T03:42:07.179Z,23.83
2023-01-20T03:45:01.630Z,24.60
2023-01-20T03:47:40.910Z,23.70
2023-01-20T03:50:21.227Z,24.23
2023-01-20T03:53:01.802Z,23.87
2023-01-20T03:55:37.421Z,22.70
2023-01-20T03:58:17.389Z,24.73
2023-01-20T04:00:46.754Z,24.60
2023-01-20T04:03:26.447Z,24.27
2023-01-20T04:05:53.311Z,24.40
2023-01-20T04:08:22.435Z,23.93
2023-01-20T04:10:50.203Z,24.03
2023-01-20T04:13:16.924Z,25.13
2023-01-20T04:15:46.631Z,25.33
2023-01-20T04:18:16.120Z,24.43
2023-01-20T04:20:44.802Z,24.30
2023-01-20T04:23:37.951Z,24.70
2023-01-20T04:26:04.548Z,26.03
2023-01-20T04:28:32.177Z,25.47
2023-01-20T04:30:58.905Z,24.20
2023-01-20T04:33:25.417Z,25.93
2023-01-20T04:35:52.767Z,26.40
2023-01-20T04:38:19.227Z,25.93
2023-01-20T04:40:45.631Z,26.60
2023-01-20T04:43:12.418Z,25.70
2023-01-20T04:45:41.199Z,26.73
2023-01-20T04:48:08.673Z,25.67
2023-01-20T04:50:41.580Z,24.93
2023-01-20T04:53:11.462Z,24.07
2023-01-20T04:55:37.852Z,26.20
2023-01-20T04:58:04.503Z,25.73
2023-01-20T05:00:30.920Z,25.80
2023-01-20T05:02:58.497Z,26.77
2023-01-20T05:05:25.179Z,26.53
2023-01-20T05:07:53.547Z,29.30
2023-01-20T05:10:21.141Z,30.70
2023-01-20T05:12:47.855Z,29.43
2023-01-20T05:15:14.855Z,28.60
2023-01-20T05:17:41.756Z,28.43
2023-01-20T05:20:09.224Z,27.43
2023-01-20T05:22:35.962Z,27.57
2023-01-20T05:25:02.578Z,28.30
2023-01-20T05:27:29.032Z,28.33
2023-01-20T05:29:55.481Z,28.87
2023-01-20T05:32:22.176Z,30.80
2023-01-20T05:34:48.635Z,30.20
2023-01-20T05:37:17.767Z,27.77
2023-01-20T05:39:44.534Z,29.90
2023-01-20T05:42:11.219Z,28.47
2023-01-20T05:44:38.350Z,29.20
2023-01-20T05:47:04.906Z,28.77
2023-01-20T05:49:31.365Z,29.03
2023-01-20T05:51:57.935Z,29.60
2023-01-20T05:54:24.551Z,28.33
2023-01-20T05:56:51.101Z,29.43
2023-01-20T05:59:17.777Z,29.70
2023-01-20T06:01:44.235Z,32.80
2023-01-20T06:04:10.642Z,31.07
2023-01-20T06:06:37.848Z,30.87
2023-01-20T06:09:04.294Z,30.17
2023-01-20T06:11:30.690Z,30.53
2023-01-20T06:13:57.131Z,33.23
2023-01-20T06:16:23.592Z,32.57
2023-01-20T06:18:50.160Z,32.07
2023-01-20T06:21:16.653Z,33.10
2023-01-20T06:23:43.111Z,31.23
2023-01-20T06:26:13.365Z,39.67
2023-01-20T06:28:39.945Z,38.33
2023-01-20T06:31:11.529Z,32.77
2023-01-20T06:33:38.087Z,33.17
2023-01-20T06:36:05.590Z,30.77
2023-01-20T06:38:33.857Z,30.37
2023-01-20T06:41:02.766Z,29.93
2023-01-20T06:43:30.301Z,28.87
2023-01-20T06:46:01.574Z,28.93
2023-01-20T06:48:28.283Z,27.67
2023-01-20T06:51:00.565Z,27.80
2023-01-20T06:53:26.987Z,26.97
2023-01-20T06:55:56.667Z,29.13
2023-01-20T06:58:24.945Z,28.93
2023-01-20T07:00:52.607Z,27.07
2023-01-20T07:03:19.359Z,27.37
2023-01-20T07:05:55.178Z,27.20
2023-01-20T07:08:21.813Z,27.97
2023-01-20T07:10:48.181Z,27.17
2023-01-20T07:13:14.645Z,25.87
2023-01-20T07:15:41.337Z,27.23
2023-01-20T07:18:07.914Z,28.20
2023-01-20T07:20:34.329Z,26.70
2023-01-20T07:23:01.771Z,27.57
2023-01-20T07:25:28.448Z,27.67
2023-01-20T07:27:55.087Z,27.87
2023-01-20T07:30:21.473Z,27.30
2023-01-20T07:32:48.085Z,28.33
2023-01-20T07:35:14.734Z,29.27
2023-01-20T07:37:41.250Z,28.03
2023-01-20T07:40:08.823Z,29.40
2023-01-20T07:42:38.880Z,28.07
2023-01-20T07:45:06.097Z,28.03
2023-01-20T07:47:32.522Z,27.23
2023-01-20T07:49:58.902Z,27.20
2023-01-20T07:52:25.350Z,27.73
2023-01-20T07:54:51.815Z,28.27
2023-01-20T07:57:18.283Z,29.27
2023-01-20T07:59:44.716Z,28.50
2023-01-20T08:02:11.110Z,28.27
2023-01-20T08:04:37.541Z,29.67
2023-01-20T08:07:04.038Z,27.90
2023-01-20T08:09:30.437Z,27.87
2023-01-20T08:11:56.935Z,27.90
2023-01-20T08:14:23.462Z,28.60
2023-01-20T08:16:49.971Z,27.47
2023-01-20T08:19:16.495Z,27.73
2023-01-20T08:21:42.890Z,27.97
2023-01-20T08:24:10.226Z,28.67
2023-01-20T08:26:36.842Z,27.33
2023-01-20T08:29:05.509Z,26.53
2023-01-20T08:31:32.235Z,27.57
2023-01-20T08:33:59.199Z,28.50
2023-01-20T08:36:31.993Z,27.33
2023-01-20T08:39:00.118Z,29.87
2023-01-20T08:41:29.626Z,30.43
2023-01-20T08:43:58.697Z,30.43
2023-01-20T08:46:25.306Z,28.00
2023-01-20T08:48:51.935Z,30.70
2023-01-20T08:51:24.629Z,29.57
2023-01-20T08:53:51.693Z,27.23
2023-01-20T08:56:18.907Z,28.20
2023-01-20T08:58:45.674Z,28.37
2023-01-20T09:01:16.964Z,27.57
2023-01-20T09:03:55.418Z,27.97
2023-01-20T09:06:31.517Z,28.63
2023-01-20T09:08:58.151Z,29.60
2023-01-20T09:11:26.279Z,28.93
2023-01-20T09:13:53.945Z,33.00
2023-01-20T09:16:20.562Z,32.13
2023-01-20T09:18:47.262Z,30.70
2023-01-20T09:21:13.745Z,30.90
2023-01-20T09:23:41.089Z,33.67
2023-01-20T09:26:07.774Z,31.87
2023-01-20T09:28:34.943Z,30.73
2023-01-20T09:31:04.656Z,30.60
2023-01-20T09:33:32.493Z,30.23
2023-01-20T09:35:59.739Z,30.10
2023-01-20T09:38:45.848Z,29.33
2023-01-20T09:41:44.905Z,31.53
2023-01-20T09:44:53.940Z,32.30
2023-01-20T09:47:32.449Z,30.63
2023-01-20T09:50:23.864Z,29.83
2023-01-20T09:53:03.904Z,31.47
2023-01-20T09:55:50.890Z,31.40
2023-01-20T09:58:17.320Z,31.67
2023-01-20T10:00:48.798Z,33.87
2023-01-20T10:03:36.906Z,30.47
2023-01-20T10:06:17.721Z,31.03
2023-01-20T10:09:05.523Z,28.20
2023-01-20T10:11:41.888Z,29.47
2023-01-20T10:14:18.500Z,27.00
2023-01-20T10:16:55.099Z,27.73
2023-01-20T10:19:35.501Z,26.67
2023-01-20T10:22:11.287Z,25.10
2023-01-20T10:24:44.611Z,28.23
2023-01-20T10:27:11.024Z,26.60
2023-01-20T10:29:39.615Z,29.37
2023-01-20T10:32:13.443Z,28.87
2023-01-20T10:34:47.367Z,26.80
2023-01-20T10:37:15.521Z,29.13
2023-01-20T10:39:53.325Z,27.70
2023-01-20T10:42:20.205Z,27.37
2023-01-20T10:44:48.436Z,27.40
2023-01-20T10:47:26.113Z,27.63
2023-01-20T10:50:32.403Z,27.60
2023-01-20T10:53:14.108Z,28.07
2023-01-20T10:55:52.633Z,27.53
2023-01-20T10:58:38.141Z,27.60
2023-01-20T11:01:08.998Z,28.70
2023-01-20T11:03:38.123Z,28.40
2023-01-20T11:06:06.197Z,26.70
2023-01-20T11:08:32.820Z,28.67
2023-01-20T11:11:09.131Z,27.57
2023-01-20T11:13:35.643Z,28.30
2023-01-20T11:16:05.077Z,28.70
2023-01-20T11:18:32.958Z,28.60
2023-01-20T11:21:04.806Z,29.30
2023-01-20T11:24:00.670Z,29.70
2023-01-20T11:26:37.971Z,30.10
2023-01-20T11:29:10.219Z,29.50
2023-01-20T11:31:41.709Z,28.10
2023-01-20T11:34:28.417Z,29.83
2023-01-20T11:37:17.339Z,29.93
2023-01-20T11:39:50.254Z,29.53
2023-01-20T11:42:23.600Z,30.20
2023-01-20T11:44:56.111Z,30.90
2023-01-20T11:47:31.336Z,31.90
2023-01-20T11:50:04.056Z,32.77
2023-01-20T11:52:35.639Z,32.13
2023-01-20T11:55:12.159Z,40.53
2023-01-20T11:57:39.740Z,36.70
2023-01-20T12:00:27.130Z,31.67
2023-01-20T12:03:02.518Z,31.23
2023-01-20T12:05:37.456Z,30.80
2023-01-20T12:08:05.004Z,31.10
2023-01-20T12:10:35.141Z,31.33
2023-01-20T12:13:17.219Z,33.03
2023-01-20T12:15:52.885Z,32.73
2023-01-20T12:18:29.723Z,32.67
2023-01-20T12:20:59.477Z,32.23
2023-01-20T12:23:46.339Z,32.33
2023-01-20T12:26:14.376Z,33.57
2023-01-20T12:29:03.084Z,31.90
2023-01-20T12:31:29.909Z,30.90
2023-01-20T12:34:04.922Z,33.03
2023-01-20T12:36:52.431Z,32.10
2023-01-20T12:39:40.165Z,31.63
2023-01-20T12:42:06.828Z,30.90
2023-01-20T12:44:58.644Z,32.80
2023-01-20T12:47:56.097Z,33.13
2023-01-20T12:50:38.212Z,31.87
2023-01-20T12:53:27.007Z,32.13
2023-01-20T12:56:00.171Z,32.43
2023-01-20T12:58:49.472Z,32.67
2023-01-20T13:01:29.467Z,32.00
2023-01-20T13:04:26.188Z,31.40
2023-01-20T13:07:08.768Z,30.80
2023-01-20T13:09:43.216Z,32.50
2023-01-20T13:12:33.323Z,34.53
2023-01-20T13:15:09.356Z,35.53
2023-01-20T13:17:48.178Z,35.23
2023-01-20T13:20:20.754Z,37.57
2023-01-20T13:22:48.430Z,34.87
2023-01-20T13:25:16.873Z,34.23
2023-01-20T13:27:44.636Z,34.03
2023-01-20T13:30:39.642Z,33.73
2023-01-20T13:33:14.528Z,33.27
2023-01-20T13:35:45.109Z,33.80
2023-01-20T13:38:23.462Z,33.87
2023-01-20T13:40:55.477Z,32.77
2023-01-20T13:43:25.586Z,32.97
2023-01-20T13:46:07.251Z,31.67
2023-01-20T13:48:35.759Z,33.67
2023-01-20T13:51:29.113Z,32.93
2023-01-20T13:54:35.501Z,35.10
2023-01-20T13:57:37.578Z,33.03
2023-01-20T14:00:12.038Z,34.57
2023-01-20T14:02:38.966Z,32.83
2023-01-20T14:05:20.193Z,32.53
2023-01-20T14:07:46.646Z,32.10
2023-01-20T14:10:13.835Z,30.60
2023-01-20T14:12:41.385Z,31.63
2023-01-20T14:15:23.189Z,30.90
2023-01-20T14:17:54.165Z,32.67
2023-01-20T14:20:25.678Z,33.67
2023-01-20T14:22:52.662Z,33.67
2023-01-20T14:25:24.658Z,35.57
2023-01-20T14:27:51.708Z,38.30
2023-01-20T14:30:24.717Z,34.83
2023-01-20T14:32:52.919Z,34.80
2023-01-20T14:35:24.657Z,34.23
2023-01-20T14:37:51.935Z,35.00
2023-01-20T14:40:31.377Z,37.50
2023-01-20T14:43:02.947Z,37.17
2023-01-20T14:45:32.358Z,36.03
2023-01-20T14:48:00.222Z,35.63
2023-01-20T14:50:27.129Z,39.67
2023-01-20T14:52:53.540Z,43.13
2023-01-20T14:55:28.224Z,39.57
2023-01-20T14:57:54.920Z,36.97
2023-01-20T15:00:23.916Z,43.57
2023-01-20T15:03:11.353Z,34.03
2023-01-20T15:05:41.670Z,31.87
2023-01-20T15:08:32.709Z,31.40
2023-01-20T15:11:16.499Z,33.60
2023-01-20T15:13:58.666Z,35.10
2023-01-20T15:16:30.964Z,36.60
2023-01-20T15:19:33.257Z,31.43
2023-01-20T15:22:18.455Z,31.53
2023-01-20T15:24:47.402Z,31.87
2023-01-20T15:27:22.199Z,33.47
2023-01-20T15:30:15.924Z,32.83
2023-01-20T15:32:42.625Z,36.03
2023-01-20T15:35:12.995Z,36.87
2023-01-20T15:37:40.620Z,36.10
2023-01-20T15:40:14.250Z,36.83
2023-01-20T15:42:41.861Z,36.53
2023-01-20T15:45:11.722Z,36.00
2023-01-20T15:47:38.442Z,35.67
2023-01-20T15:50:12.519Z,35.07
2023-01-20T15:52:38.993Z,35.70
2023-01-20T15:55:06.078Z,36.27
2023-01-20T15:57:33.026Z,37.17
2023-01-20T15:59:59.433Z,40.73
2023-01-20T16:02:26.033Z,42.00
2023-01-20T16:04:53.394Z,41.57
2023-01-20T16:07:20.692Z,39.80
2023-01-20T16:09:47.797Z,43.27
2023-01-20T16:12:16.655Z,40.40
2023-01-20T16:14:44.565Z,40.37
2023-01-20T16:17:16.287Z,37.93
2023-01-20T16:19:42.710Z,36.40
2023-01-20T16:22:10.622Z,36.43
2023-01-20T16:24:37.930Z,36.60
2023-01-20T16:27:13.835Z,34.40
2023-01-20T16:29:40.337Z,31.27
2023-01-20T16:32:06.815Z,34.67
2023-01-20T16:34:33.625Z,32.47
2023-01-20T16:37:00.525Z,33.63
2023-01-20T16:39:26.925Z,37.03
2023-01-20T16:41:53.765Z,34.77
2023-01-20T16:44:20.443Z,37.03
2023-01-20T16:46:50.024Z,36.03
2023-01-20T16:49:16.593Z,35.10
2023-01-20T16:51:43.040Z,37.30
2023-01-20T16:54:09.494Z,35.73
2023-01-20T16:56:36.266Z,34.30
2023-01-20T16:59:02.819Z,32.80
2023-01-20T17:01:30.677Z,33.20
2023-01-20T17:03:59.738Z,33.00
2023-01-20T17:06:32.228Z,31.60
2023-01-20T17:09:00.046Z,31.43
2023-01-20T17:11:34.972Z,31.40
2023-01-20T17:14:06.264Z,30.03
2023-01-20T17:16:33.344Z,31.00
2023-01-20T17:19:00.717Z,31.67
2023-01-20T17:21:34.500Z,31.77
2023-01-20T17:24:02.808Z,32.63
2023-01-20T17:26:29.846Z,30.10
2023-01-20T17:28:57.824Z,31.27
2023-01-20T17:31:24.585Z,30.97
2023-01-20T17:33:51.696Z,31.03
2023-01-20T17:38:52.727Z,30.40
2023-01-20T17:42:57.749Z,34.40
2023-01-20T17:45:24.329Z,36.10
2023-01-20T17:47:52.139Z,39.20
2023-01-20T17:50:19.048Z,36.53
2023-01-20T17:52:45.608Z,35.10
2023-01-20T17:55:12.748Z,32.17
2023-01-20T17:57:39.521Z,32.97
2023-01-20T18:00:06.678Z,34.43
2023-01-20T18:02:33.257Z,38.40
2023-01-20T18:05:00.407Z,36.10
2023-01-20T18:07:26.818Z,34.07
2023-01-20T18:09:53.260Z,33.57
2023-01-20T18:12:21.454Z,36.07
2023-01-20T18:14:47.987Z,35.67
2023-01-20T18:17:14.499Z,32.60
2023-01-20T18:19:41.084Z,33.07
2023-01-20T18:22:10.266Z,31.60
2023-01-20T18:24:36.738Z,33.33
2023-01-20T18:27:03.311Z,32.40
2023-01-20T18:29:30.188Z,34.33
2023-01-20T18:31:58.205Z,33.60
2023-01-20T18:34:25.039Z,31.80
2023-01-20T18:36:51.970Z,31.97
2023-01-20T18:39:23.732Z,33.73
2023-01-20T18:41:51.933Z,31.80
2023-01-20T18:44:19.180Z,31.50
2023-01-20T18:46:45.761Z,31.97
2023-01-20T18:49:13.920Z,32.87
2023-01-20T18:51:42.268Z,32.13
2023-01-20T18:54:12.004Z,33.23
2023-01-20T18:56:39.224Z,32.93
2023-01-20T18:59:06.514Z,31.63
2023-01-20T19:01:35.842Z,28.43
2023-01-20T19:04:04.303Z,30.70
2023-01-20T19:06:34.398Z,28.13
2023-01-20T19:09:02.133Z,30.13
2023-01-20T19:11:39.554Z,36.93
2023-01-20T19:14:08.134Z,32.13
2023-01-20T19:16:42.291Z,31.30
2023-01-20T19:19:10.801Z,28.07
2023-01-20T19:21:37.848Z,27.63
2023-01-20T19:24:07.905Z,25.63
2023-01-20T19:26:36.249Z,26.03
2023-01-20T19:29:08.555Z,22.63
2023-01-20T19:31:37.664Z,22.73
2023-01-20T19:34:08.340Z,19.73
2023-01-20T19:36:36.409Z,21.20
2023-01-20T19:39:03.720Z,22.73
2023-01-20T19:41:34.499Z,22.47
2023-01-20T19:44:03.229Z,23.67
2023-01-20T19:46:32.302Z,23.13
2023-01-20T19:48:59.879Z,23.47
2023-01-20T19:51:27.119Z,24.03
2023-01-20T19:53:58.050Z,24.60
2023-01-20T19:56:27.096Z,26.53
2023-01-20T19:58:54.779Z,26.27
2023-01-20T20:01:24.739Z,26.27
2023-01-20T20:03:52.513Z,28.03
2023-01-20T20:06:38.003Z,27.17
2023-01-20T20:09:06.533Z,26.70
2023-01-20T20:11:33.467Z,26.33
2023-01-20T20:14:02.582Z,26.40
2023-01-20T20:16:31.554Z,26.17
2023-01-20T20:18:58.482Z,26.33
2023-01-20T20:21:25.748Z,27.30
2023-01-20T20:23:54.521Z,26.90
2023-01-20T20:26:22.710Z,26.63
2023-01-20T20:28:51.299Z,27.23
2023-01-20T20:31:18.799Z,25.97
2023-01-20T20:33:48.547Z,26.50
2023-01-20T20:36:15.511Z,26.83
2023-01-20T20:38:41.999Z,26.17
2023-01-20T20:41:09.243Z,25.57
2023-01-20T20:43:37.510Z,24.57
2023-01-20T20:46:05.995Z,26.80
2023-01-20T20:48:36.724Z,26.27
2023-01-20T20:51:12.646Z,26.03
2023-01-20T20:53:39.536Z,25.07
2023-01-20T20:56:08.083Z,25.43
2023-01-20T20:58:34.960Z,25.30
2023-01-20T21:01:02.784Z,27.30
2023-01-20T21:03:30.229Z,26.43
2023-01-20T21:05:57.846Z,28.57
2023-01-20T21:08:25.959Z,28.43
2023-01-20T21:10:52.833Z,27.90
2023-01-20T21:13:20.248Z,29.00
2023-01-20T21:16:03.563Z,30.03
2023-01-20T21:18:31.215Z,29.10
2023-01-20T21:20:59.599Z,29.30
2023-01-20T21:23:27.374Z,29.87
2023-01-20T21:25:54.087Z,27.80
2023-01-20T21:28:20.737Z,30.80
2023-01-20T21:30:47.484Z,27.07
2023-01-20T21:33:17.581Z,29.00
2023-01-20T21:35:47.564Z,28.83
2023-01-20T21:38:14.360Z,29.00
2023-01-20T21:40:41.669Z,26.80
2023-01-20T21:43:27.711Z,28.40
2023-01-20T21:45:55.312Z,26.90
2023-01-20T21:48:41.968Z,25.60
2023-01-20T21:51:30.859Z,24.00
2023-01-20T21:53:57.429Z,26.53
2023-01-20T21:56:24.057Z,26.03
2023-01-20T21:58:50.627Z,25.50
2023-01-20T22:01:17.094Z,25.73
2023-01-20T22:03:43.565Z,23.70
2023-01-20T22:06:10.209Z,23.73
2023-01-20T22:08:36.937Z,24.57
2023-01-20T22:11:04.870Z,21.80
2023-01-20T22:13:31.616Z,23.63
2023-01-20T22:16:02.233Z,24.30
2023-01-20T22:18:29.739Z,24.30
2023-01-20T22:21:06.594Z,24.97
2023-01-20T22:23:34.307Z,26.27
2023-01-20T22:26:05.225Z,24.57
2023-01-20T22:28:40.494Z,24.03
2023-01-20T22:31:14.144Z,23.67
2023-01-20T22:33:40.789Z,25.93
2023-01-20T22:36:07.647Z,25.27
2023-01-20T22:38:34.470Z,23.10
2023-01-20T22:41:05.654Z,22.10
2023-01-20T22:43:33.886Z,21.50
2023-01-20T22:46:01.730Z,20.97
2023-01-20T22:48:33.604Z,22.27
2023-01-20T22:51:08.948Z,21.50
2023-01-20T22:53:35.923Z,21.03
2023-01-20T22:56:07.096Z,21.00
2023-01-20T22:58:34.363Z,19.67
2023-01-20T23:01:01.461Z,19.27
2023-01-20T23:03:29.186Z,18.50
2023-01-20T23:05:57.759Z,16.70
2023-01-20T23:08:25.906Z,16.80
2023-01-20T23:10:57.327Z,15.60
2023-01-20T23:13:24.291Z,16.50
2023-01-20T23:15:51.454Z,16.00
2023-01-20T23:18:19.111Z,15.60
2023-01-20T23:20:50.122Z,15.27
2023-01-20T23:23:17.557Z,14.33
2023-01-20T23:25:44.573Z,15.13
2023-01-20T23:28:12.419Z,14.83
2023-01-20T23:30:40.145Z,15.03
2023-01-20T23:33:07.538Z,14.77
2023-01-20T23:35:35.025Z,14.90
2023-01-20T23:38:01.702Z,15.87
2023-01-20T23:40:30.388Z,14.40
2023-01-20T23:42:57.235Z,14.87
2023-01-20T23:45:24.182Z,14.17
2023-01-20T23:47:52.012Z,14.67
2023-01-20T23:50:18.919Z,14.87
2023-01-20T23:52:45.736Z,14.90
2023-01-20T23:55:12.793Z,15.33
2023-01-20T23:57:39.981Z,14.97
